createdAt,value
2022-11-08T00:00:55.794Z,1006.65
2022-11-08T00:01:55.913Z,1006.73
2022-11-08T00:02:55.856Z,1006.69
2022-11-08T00:03:55.784Z,1006.70
2022-11-08T00:04:55.750Z,1006.71
2022-11-08T00:05:55.750Z,1006.70
2022-11-08T00:06:55.733Z,1006.65
2022-11-08T00:07:55.725Z,1006.68
2022-11-08T00:08:55.706Z,1006.68
2022-11-08T00:09:55.713Z,1006.73
2022-11-08T00:10:55.682Z,1006.70
2022-11-08T00:11:55.698Z,1006.71
2022-11-08T00:12:56.319Z,1006.74
2022-11-08T00:13:55.671Z,1006.73
2022-11-08T00:14:55.648Z,1006.74
2022-11-08T00:15:55.626Z,1006.71
2022-11-08T00:16:55.623Z,1006.73
2022-11-08T00:17:55.605Z,1006.67
2022-11-08T00:18:55.614Z,1006.69
2022-11-08T00:19:55.579Z,1006.65
2022-11-08T00:20:55.578Z,1006.65
2022-11-08T00:21:55.571Z,1006.66
2022-11-08T00:22:55.553Z,1006.59
2022-11-08T00:23:55.560Z,1006.68
2022-11-08T00:24:55.531Z,1006.71
2022-11-08T00:25:55.516Z,1006.71
2022-11-08T00:26:55.509Z,1006.69
2022-11-08T00:27:55.541Z,1006.68
2022-11-08T00:28:55.483Z,1006.65
2022-11-08T00:29:55.485Z,1006.63
2022-11-08T00:30:55.466Z,1006.62
2022-11-08T00:31:55.448Z,1006.63
2022-11-08T00:32:55.456Z,1006.58
2022-11-08T00:33:55.445Z,1006.54
2022-11-08T00:34:55.414Z,1006.54
2022-11-08T00:35:55.402Z,1006.53
2022-11-08T00:36:55.391Z,1006.57
2022-11-08T00:37:55.383Z,1006.57
2022-11-08T00:38:55.378Z,1006.55
2022-11-08T00:39:55.355Z,1006.56
2022-11-08T00:40:55.352Z,1006.54
2022-11-08T00:41:55.334Z,1006.52
2022-11-08T00:42:55.323Z,1006.58
2022-11-08T00:43:55.357Z,1006.58
2022-11-08T00:44:55.302Z,1006.59
2022-11-08T00:45:55.289Z,1006.62
2022-11-08T00:46:55.282Z,1006.62
2022-11-08T00:47:55.273Z,1006.58
2022-11-08T00:48:55.278Z,1006.61
2022-11-08T00:49:55.252Z,1006.62
2022-11-08T00:50:55.231Z,1006.69
2022-11-08T00:51:55.224Z,1006.63
2022-11-08T00:52:55.208Z,1006.62
2022-11-08T00:53:55.226Z,1006.61
2022-11-08T00:54:55.199Z,1006.63
2022-11-08T00:55:55.183Z,1006.63
2022-11-08T00:56:55.167Z,1006.62
2022-11-08T00:57:59.757Z,1006.64
2022-11-08T00:58:56.166Z,1006.60
2022-11-08T00:59:55.156Z,1006.58
2022-11-08T01:00:55.149Z,1006.58
2022-11-08T01:01:55.275Z,1006.56
2022-11-08T01:02:55.098Z,1006.56
2022-11-08T01:03:55.102Z,1006.57
2022-11-08T01:04:55.072Z,1006.57
2022-11-08T01:05:55.100Z,1006.53
2022-11-08T01:06:55.053Z,1006.52
2022-11-08T01:07:55.051Z,1006.51
2022-11-08T01:08:55.041Z,1006.51
2022-11-08T01:09:55.037Z,1006.48
2022-11-08T01:10:55.013Z,1006.51
2022-11-08T01:11:54.996Z,1006.53
2022-11-08T01:12:54.991Z,1006.55
2022-11-08T01:13:54.998Z,1006.53
2022-11-08T01:14:54.969Z,1006.48
2022-11-08T01:15:55.031Z,1006.47
2022-11-08T01:16:54.945Z,1006.46
2022-11-08T01:17:54.934Z,1006.48
2022-11-08T01:18:54.930Z,1006.46
2022-11-08T01:19:54.902Z,1006.44
2022-11-08T01:20:54.893Z,1006.41
2022-11-08T01:21:54.890Z,1006.44
2022-11-08T01:22:54.877Z,1006.43
2022-11-08T01:23:54.884Z,1006.40
2022-11-08T01:24:54.850Z,1006.42
2022-11-08T01:25:54.837Z,1006.40
2022-11-08T01:26:54.826Z,1006.33
2022-11-08T01:27:54.823Z,1006.29
2022-11-08T01:28:54.829Z,1006.32
2022-11-08T01:29:54.792Z,1006.29
2022-11-08T01:30:54.779Z,1006.29
2022-11-08T01:31:54.798Z,1006.31
2022-11-08T01:32:54.763Z,1006.26
2022-11-08T01:33:54.750Z,1006.33
2022-11-08T01:34:54.753Z,1006.31
2022-11-08T01:35:54.732Z,1006.34
2022-11-08T01:36:54.712Z,1006.34
2022-11-08T01:37:54.708Z,1006.32
2022-11-08T01:38:54.702Z,1006.35
2022-11-08T01:39:54.698Z,1006.35
2022-11-08T01:40:54.679Z,1006.36
2022-11-08T01:41:54.663Z,1006.37
2022-11-08T01:42:54.644Z,1006.36
2022-11-08T01:43:54.665Z,1006.30
2022-11-08T01:44:54.628Z,1006.36
2022-11-08T01:45:54.627Z,1006.31
2022-11-08T01:46:54.618Z,1006.38
2022-11-08T01:47:54.619Z,1006.28
2022-11-08T01:48:54.592Z,1006.29
2022-11-08T01:49:54.567Z,1006.29
2022-11-08T01:50:54.555Z,1006.27
2022-11-08T01:51:54.554Z,1006.27
2022-11-08T01:52:54.532Z,1006.29
2022-11-08T01:53:54.536Z,1006.30
2022-11-08T01:54:54.516Z,1006.27
2022-11-08T01:55:54.517Z,1006.26
2022-11-08T01:56:54.490Z,1006.29
2022-11-08T01:57:54.476Z,1006.30
2022-11-08T01:58:54.494Z,1006.24
2022-11-08T01:59:54.453Z,1006.21
2022-11-08T02:00:54.523Z,1006.21
2022-11-08T02:01:54.563Z,1006.19
2022-11-08T02:02:54.427Z,1006.11
2022-11-08T02:03:54.442Z,1006.08
2022-11-08T02:04:54.403Z,1006.12
2022-11-08T02:05:54.392Z,1006.11
2022-11-08T02:06:54.378Z,1006.10
2022-11-08T02:07:54.363Z,1006.12
2022-11-08T02:08:54.370Z,1006.10
2022-11-08T02:09:54.343Z,1006.04
2022-11-08T02:10:54.343Z,1006.14
2022-11-08T02:11:54.334Z,1006.20
2022-11-08T02:12:54.305Z,1006.21
2022-11-08T02:13:54.319Z,1006.20
2022-11-08T02:14:54.283Z,1006.19
2022-11-08T02:15:54.276Z,1006.19
2022-11-08T02:16:54.291Z,1006.21
2022-11-08T02:17:54.251Z,1006.23
2022-11-08T02:18:54.254Z,1006.28
2022-11-08T02:19:54.270Z,1006.24
2022-11-08T02:20:54.220Z,1006.23
2022-11-08T02:21:54.217Z,1006.23
2022-11-08T02:22:54.213Z,1006.27
2022-11-08T02:23:54.199Z,1006.22
2022-11-08T02:24:54.177Z,1006.22
2022-11-08T02:25:54.167Z,1006.23
2022-11-08T02:26:54.147Z,1006.13
2022-11-08T02:27:54.153Z,1006.15
2022-11-08T02:28:54.129Z,1006.15
2022-11-08T02:29:54.135Z,1006.16
2022-11-08T02:30:54.115Z,1006.15
2022-11-08T02:31:54.092Z,1006.12
2022-11-08T02:32:54.087Z,1006.09
2022-11-08T02:33:54.081Z,1006.09
2022-11-08T02:34:54.070Z,1006.09
2022-11-08T02:35:54.080Z,1006.04
2022-11-08T02:36:54.044Z,1006.03
2022-11-08T02:37:54.026Z,1006.02
2022-11-08T02:38:54.035Z,1006.01
2022-11-08T02:39:54.007Z,1006.02
2022-11-08T02:40:53.998Z,1006.01
2022-11-08T02:41:53.994Z,1006.01
2022-11-08T02:42:53.967Z,1005.99
2022-11-08T02:43:53.977Z,1005.99
2022-11-08T02:44:53.945Z,1005.95
2022-11-08T02:45:53.953Z,1005.95
2022-11-08T02:46:53.923Z,1005.99
2022-11-08T02:47:53.926Z,1005.92
2022-11-08T02:48:53.932Z,1005.92
2022-11-08T02:49:53.897Z,1005.90
2022-11-08T02:50:53.877Z,1005.86
2022-11-08T02:51:53.891Z,1005.83
2022-11-08T02:52:53.862Z,1005.83
2022-11-08T02:53:53.877Z,1005.80
2022-11-08T02:54:53.840Z,1005.80
2022-11-08T02:55:53.823Z,1005.75
2022-11-08T02:56:53.817Z,1005.69
2022-11-08T02:57:53.800Z,1005.69
2022-11-08T02:58:53.811Z,1005.66
2022-11-08T02:59:53.790Z,1005.65
2022-11-08T03:00:53.795Z,1005.56
2022-11-08T03:01:53.921Z,1005.60
2022-11-08T03:02:53.750Z,1005.56
2022-11-08T03:03:53.753Z,1005.55
2022-11-08T03:04:53.737Z,1005.52
2022-11-08T03:05:53.729Z,1005.50
2022-11-08T03:06:53.697Z,1005.49
2022-11-08T03:07:53.716Z,1005.44
2022-11-08T03:08:53.723Z,1005.50
2022-11-08T03:09:53.666Z,1005.46
2022-11-08T03:10:53.677Z,1005.49
2022-11-08T03:11:53.656Z,1005.50
2022-11-08T03:12:53.633Z,1005.48
2022-11-08T03:13:53.626Z,1005.45
2022-11-08T03:14:53.640Z,1005.49
2022-11-08T03:15:53.607Z,1005.47
2022-11-08T03:16:53.611Z,1005.41
2022-11-08T03:17:53.574Z,1005.39
2022-11-08T03:18:53.580Z,1005.36
2022-11-08T03:19:53.560Z,1005.34
2022-11-08T03:20:53.554Z,1005.31
2022-11-08T03:21:53.543Z,1005.25
2022-11-08T03:22:53.519Z,1005.21
2022-11-08T03:23:53.550Z,1005.15
2022-11-08T03:24:53.514Z,1005.16
2022-11-08T03:25:53.486Z,1005.10
2022-11-08T03:26:53.472Z,1005.10
2022-11-08T03:27:53.464Z,1005.09
2022-11-08T03:28:53.451Z,1005.01
2022-11-08T03:29:53.449Z,1005.02
2022-11-08T03:30:53.430Z,1004.97
2022-11-08T03:31:53.425Z,1004.90
2022-11-08T03:32:53.423Z,1004.92
2022-11-08T03:33:53.414Z,1004.94
2022-11-08T03:34:53.385Z,1004.95
2022-11-08T03:35:53.384Z,1004.95
2022-11-08T03:36:53.374Z,1004.94
2022-11-08T03:37:53.369Z,1004.90
2022-11-08T03:38:53.354Z,1004.87
2022-11-08T03:39:53.363Z,1004.92
2022-11-08T03:40:53.318Z,1004.86
2022-11-08T03:41:53.309Z,1004.84
2022-11-08T03:42:53.305Z,1004.87
2022-11-08T03:43:53.309Z,1004.86
2022-11-08T03:44:53.271Z,1004.85
2022-11-08T03:45:53.269Z,1004.88
2022-11-08T03:46:53.251Z,1004.83
2022-11-08T03:47:53.239Z,1004.85
2022-11-08T03:48:53.251Z,1004.85
2022-11-08T03:49:53.216Z,1004.85
2022-11-08T03:50:53.213Z,1004.83
2022-11-08T03:51:53.200Z,1004.87
2022-11-08T03:52:53.184Z,1004.86
2022-11-08T03:53:53.190Z,1004.85
2022-11-08T03:54:53.171Z,1004.78
2022-11-08T03:55:53.204Z,1004.82
2022-11-08T03:56:53.137Z,1004.78
2022-11-08T03:57:53.127Z,1004.81
2022-11-08T03:58:53.129Z,1004.82
2022-11-08T03:59:53.113Z,1004.87
2022-11-08T04:00:53.156Z,1004.87
2022-11-08T04:01:53.294Z,1004.89
2022-11-08T04:02:53.078Z,1004.89
2022-11-08T04:03:53.070Z,1004.86
2022-11-08T04:04:53.055Z,1004.85
2022-11-08T04:05:53.044Z,1004.85
2022-11-08T04:06:53.044Z,1004.80
2022-11-08T04:07:53.022Z,1004.81
2022-11-08T04:08:53.036Z,1004.78
2022-11-08T04:09:52.993Z,1004.78
2022-11-08T04:10:52.982Z,1004.75
2022-11-08T04:11:53.004Z,1004.79
2022-11-08T04:12:52.958Z,1004.77
2022-11-08T04:13:52.970Z,1004.79
2022-11-08T04:14:52.947Z,1004.75
2022-11-08T04:15:52.980Z,1004.70
2022-11-08T04:16:52.978Z,1004.73
2022-11-08T04:17:52.900Z,1004.70
2022-11-08T04:18:52.911Z,1004.73
2022-11-08T04:19:52.881Z,1004.71
2022-11-08T04:20:52.868Z,1004.70
2022-11-08T04:21:52.866Z,1004.75
2022-11-08T04:22:52.854Z,1004.78
2022-11-08T04:23:52.849Z,1004.81
2022-11-08T04:24:52.849Z,1004.84
2022-11-08T04:25:52.811Z,1004.86
2022-11-08T04:26:52.809Z,1004.82
2022-11-08T04:27:52.807Z,1004.81
2022-11-08T04:28:52.792Z,1004.74
2022-11-08T04:29:52.770Z,1004.74
2022-11-08T04:30:52.767Z,1004.71
2022-11-08T04:31:52.753Z,1004.71
2022-11-08T04:32:52.736Z,1004.64
2022-11-08T04:33:52.742Z,1004.67
2022-11-08T04:34:52.717Z,1004.60
2022-11-08T04:35:52.698Z,1004.56
2022-11-08T04:36:52.696Z,1004.60
2022-11-08T04:37:52.677Z,1004.52
2022-11-08T04:38:52.681Z,1004.57
2022-11-08T04:39:52.652Z,1004.61
2022-11-08T04:40:52.650Z,1004.58
2022-11-08T04:41:54.541Z,1004.59
2022-11-08T04:42:53.626Z,1004.58
2022-11-08T04:43:52.643Z,1004.59
2022-11-08T04:44:52.644Z,1004.55
2022-11-08T04:45:52.587Z,1004.60
2022-11-08T04:46:52.582Z,1004.61
2022-11-08T04:47:52.571Z,1004.56
2022-11-08T04:48:52.565Z,1004.62
2022-11-08T04:49:52.550Z,1004.58
2022-11-08T04:50:52.542Z,1004.54
2022-11-08T04:51:52.521Z,1004.51
2022-11-08T04:52:52.509Z,1004.51
2022-11-08T04:53:52.527Z,1004.44
2022-11-08T04:54:52.495Z,1004.42
2022-11-08T04:55:52.474Z,1004.44
2022-11-08T04:56:52.487Z,1004.40
2022-11-08T04:57:52.462Z,1004.29
2022-11-08T04:58:52.462Z,1004.29
2022-11-08T04:59:53.442Z,1004.28
2022-11-08T05:00:52.422Z,1004.29
2022-11-08T05:01:52.633Z,1004.33
2022-11-08T05:02:52.490Z,1004.32
2022-11-08T05:03:52.407Z,1004.31
2022-11-08T05:04:52.380Z,1004.34
2022-11-08T05:05:52.369Z,1004.27
2022-11-08T05:06:52.358Z,1004.27
2022-11-08T05:07:52.341Z,1004.19
2022-11-08T05:08:52.352Z,1004.14
2022-11-08T05:09:52.325Z,1004.16
2022-11-08T05:10:52.315Z,1004.14
2022-11-08T05:11:52.301Z,1004.10
2022-11-08T05:12:52.332Z,1004.10
2022-11-08T05:13:52.305Z,1004.09
2022-11-08T05:14:52.278Z,1004.07
2022-11-08T05:15:52.287Z,1004.00
2022-11-08T05:16:52.239Z,1004.00
2022-11-08T05:17:52.235Z,1003.98
2022-11-08T05:18:52.233Z,1003.98
2022-11-08T05:19:52.210Z,1003.96
2022-11-08T05:20:52.201Z,1003.96
2022-11-08T05:21:52.191Z,1003.96
2022-11-08T05:22:52.172Z,1003.89
2022-11-08T05:23:52.172Z,1003.90
2022-11-08T05:24:52.157Z,1003.85
2022-11-08T05:25:52.137Z,1003.91
2022-11-08T05:26:52.141Z,1003.89
2022-11-08T05:27:52.115Z,1003.93
2022-11-08T05:28:52.150Z,1003.93
2022-11-08T05:29:52.096Z,1003.81
2022-11-08T05:30:52.082Z,1003.79
2022-11-08T05:31:52.110Z,1003.78
2022-11-08T05:32:52.061Z,1003.75
2022-11-08T05:33:52.071Z,1003.81
2022-11-08T05:34:52.041Z,1003.80
2022-11-08T05:35:52.026Z,1003.89
2022-11-08T05:36:52.014Z,1003.93
2022-11-08T05:37:52.041Z,1003.97
2022-11-08T05:38:52.012Z,1003.95
2022-11-08T05:39:51.986Z,1003.96
2022-11-08T05:40:51.976Z,1003.84
2022-11-08T05:41:51.966Z,1003.88
2022-11-08T05:42:51.948Z,1003.89
2022-11-08T05:43:51.963Z,1003.89
2022-11-08T05:44:51.924Z,1003.88
2022-11-08T05:45:51.922Z,1003.80
2022-11-08T05:46:51.903Z,1003.72
2022-11-08T05:47:51.919Z,1003.77
2022-11-08T05:48:51.896Z,1003.82
2022-11-08T05:49:51.872Z,1003.83
2022-11-08T05:50:51.870Z,1003.83
2022-11-08T05:51:51.853Z,1003.79
2022-11-08T05:52:51.853Z,1003.78
2022-11-08T05:53:51.841Z,1003.70
2022-11-08T05:54:51.821Z,1003.59
2022-11-08T05:55:51.808Z,1003.50
2022-11-08T05:56:51.797Z,1003.45
2022-11-08T05:57:51.779Z,1003.39
2022-11-08T05:58:51.787Z,1003.40
2022-11-08T05:59:51.762Z,1003.36
2022-11-08T06:00:51.755Z,1003.36
2022-11-08T06:01:51.797Z,1003.38
2022-11-08T06:02:51.787Z,1003.34
2022-11-08T06:03:51.748Z,1003.33
2022-11-08T06:04:51.702Z,1003.31
2022-11-08T06:05:51.696Z,1003.27
2022-11-08T06:06:51.679Z,1003.30
2022-11-08T06:07:51.666Z,1003.17
2022-11-08T06:08:51.927Z,1003.21
2022-11-08T06:09:51.654Z,1003.19
2022-11-08T06:10:51.638Z,1003.20
2022-11-08T06:11:51.634Z,1003.25
2022-11-08T06:12:51.618Z,1003.24
2022-11-08T06:13:51.619Z,1003.25
2022-11-08T06:14:51.589Z,1003.21
2022-11-08T06:15:51.587Z,1003.23
2022-11-08T06:16:51.576Z,1003.26
2022-11-08T06:17:51.566Z,1003.27
2022-11-08T06:18:51.577Z,1003.26
2022-11-08T06:19:51.558Z,1003.27
2022-11-08T06:20:51.533Z,1003.30
2022-11-08T06:21:51.508Z,1003.27
2022-11-08T06:22:51.505Z,1003.32
2022-11-08T06:23:51.502Z,1003.26
2022-11-08T06:24:51.489Z,1003.29
2022-11-08T06:25:51.503Z,1003.28
2022-11-08T06:26:51.481Z,1003.27
2022-11-08T06:27:51.442Z,1003.29
2022-11-08T06:28:51.453Z,1003.24
2022-11-08T06:29:51.427Z,1003.28
2022-11-08T06:30:51.433Z,1003.27
2022-11-08T06:31:51.404Z,1003.30
2022-11-08T06:32:51.395Z,1003.30
2022-11-08T06:33:51.407Z,1003.29
2022-11-08T06:34:51.373Z,1003.31
2022-11-08T06:35:51.381Z,1003.32
2022-11-08T06:36:51.350Z,1003.34
2022-11-08T06:37:51.341Z,1003.40
2022-11-08T06:38:51.334Z,1003.36
2022-11-08T06:39:51.309Z,1003.40
2022-11-08T06:40:51.302Z,1003.39
2022-11-08T06:41:51.285Z,1003.42
2022-11-08T06:42:51.283Z,1003.41
2022-11-08T06:43:51.296Z,1003.43
2022-11-08T06:44:51.252Z,1003.38
2022-11-08T06:45:51.246Z,1003.40
2022-11-08T06:46:51.250Z,1003.43
2022-11-08T06:47:51.218Z,1003.41
2022-11-08T06:48:51.247Z,1003.38
2022-11-08T06:49:51.194Z,1003.39
2022-11-08T06:50:51.182Z,1003.41
2022-11-08T06:51:51.203Z,1003.44
2022-11-08T06:52:51.166Z,1003.48
2022-11-08T06:53:51.147Z,1003.46
2022-11-08T06:54:51.171Z,1003.41
2022-11-08T06:55:51.126Z,1003.46
2022-11-08T06:56:51.118Z,1003.48
2022-11-08T06:57:51.103Z,1003.50
2022-11-08T06:58:51.107Z,1003.46
2022-11-08T06:59:51.089Z,1003.47
2022-11-08T07:00:51.077Z,1003.48
2022-11-08T07:01:51.119Z,1003.47
2022-11-08T07:02:51.139Z,1003.42
2022-11-08T07:03:51.050Z,1003.45
2022-11-08T07:04:51.033Z,1003.45
2022-11-08T07:05:51.017Z,1003.48
2022-11-08T07:06:51.004Z,1003.44
2022-11-08T07:07:51.017Z,1003.47
2022-11-08T07:08:51.177Z,1003.48
2022-11-08T07:09:50.966Z,1003.52
2022-11-08T07:10:50.967Z,1003.46
2022-11-08T07:11:50.946Z,1003.52
2022-11-08T07:12:50.962Z,1003.57
2022-11-08T07:13:50.932Z,1003.48
2022-11-08T07:14:50.953Z,1003.43
2022-11-08T07:15:50.913Z,1003.47
2022-11-08T07:16:50.891Z,1003.43
2022-11-08T07:17:50.967Z,1003.42
2022-11-08T07:18:50.928Z,1003.38
2022-11-08T07:19:50.862Z,1003.39
2022-11-08T07:20:50.849Z,1003.41
2022-11-08T07:21:50.841Z,1003.39
2022-11-08T07:22:50.825Z,1003.38
2022-11-08T07:23:50.844Z,1003.40
2022-11-08T07:24:50.797Z,1003.41
2022-11-08T07:25:50.787Z,1003.40
2022-11-08T07:26:50.781Z,1003.44
2022-11-08T07:27:50.771Z,1003.46
2022-11-08T07:28:50.802Z,1003.41
2022-11-08T07:29:50.742Z,1003.46
2022-11-08T07:30:50.738Z,1003.44
2022-11-08T07:31:50.721Z,1003.47
2022-11-08T07:32:50.714Z,1003.51
2022-11-08T07:33:50.700Z,1003.45
2022-11-08T07:34:50.713Z,1003.45
2022-11-08T07:35:50.683Z,1003.51
2022-11-08T07:36:50.665Z,1003.47
2022-11-08T07:37:50.655Z,1003.51
2022-11-08T07:38:50.644Z,1003.52
2022-11-08T07:39:50.664Z,1003.52
2022-11-08T07:40:50.630Z,1003.55
2022-11-08T07:41:50.620Z,1003.59
2022-11-08T07:43:10.781Z,1003.66
2022-11-08T07:43:51.585Z,1003.66
2022-11-08T07:44:50.597Z,1003.66
2022-11-08T07:45:50.577Z,1003.70
2022-11-08T07:46:50.554Z,1003.72
2022-11-08T07:47:50.549Z,1003.66
2022-11-08T07:48:50.536Z,1003.64
2022-11-08T07:49:50.518Z,1003.67
2022-11-08T07:50:50.516Z,1003.72
2022-11-08T07:51:50.521Z,1003.78
2022-11-08T07:52:50.484Z,1003.78
2022-11-08T07:53:50.475Z,1003.65
2022-11-08T07:54:50.466Z,1003.64
2022-11-08T07:55:50.496Z,1003.58
2022-11-08T07:56:50.444Z,1003.57
2022-11-08T07:57:50.454Z,1003.56
2022-11-08T07:58:50.423Z,1003.52
2022-11-08T07:59:50.407Z,1003.51
2022-11-08T08:00:50.411Z,1003.52
2022-11-08T08:01:50.441Z,1003.50
2022-11-08T08:02:50.449Z,1003.52
2022-11-08T08:03:50.362Z,1003.48
2022-11-08T08:04:50.353Z,1003.46
2022-11-08T08:05:50.357Z,1003.42
2022-11-08T08:06:50.335Z,1003.39
2022-11-08T08:07:50.325Z,1003.36
2022-11-08T08:08:50.303Z,1003.39
2022-11-08T08:09:50.302Z,1003.40
2022-11-08T08:10:50.307Z,1003.46
2022-11-08T08:11:50.298Z,1003.43
2022-11-08T08:12:50.277Z,1003.39
2022-11-08T08:13:50.256Z,1003.40
2022-11-08T08:14:50.246Z,1003.38
2022-11-08T08:15:50.246Z,1003.37
2022-11-08T08:16:50.220Z,1003.35
2022-11-08T08:17:50.203Z,1003.34
2022-11-08T08:18:55.051Z,1003.34
2022-11-08T08:19:51.187Z,1003.42
2022-11-08T08:20:50.184Z,1003.33
2022-11-08T08:21:50.182Z,1003.35
2022-11-08T08:22:50.157Z,1003.31
2022-11-08T08:23:50.139Z,1003.38
2022-11-08T08:24:50.131Z,1003.38
2022-11-08T08:25:50.127Z,1003.37
2022-11-08T08:26:50.112Z,1003.36
2022-11-08T08:27:50.167Z,1003.38
2022-11-08T08:28:50.089Z,1003.30
2022-11-08T08:29:50.093Z,1003.29
2022-11-08T08:30:50.099Z,1003.36
2022-11-08T08:31:50.054Z,1003.38
2022-11-08T08:33:02.367Z,1003.37
2022-11-08T08:33:51.034Z,1003.39
2022-11-08T08:34:50.016Z,1003.37
2022-11-08T08:35:50.127Z,1003.34
2022-11-08T08:36:49.996Z,1003.35
2022-11-08T08:37:49.986Z,1003.31
2022-11-08T08:38:49.975Z,1003.36
2022-11-08T08:39:49.958Z,1003.46
2022-11-08T08:40:49.957Z,1003.38
2022-11-08T08:41:49.934Z,1003.35
2022-11-08T08:42:49.930Z,1003.36
2022-11-08T08:43:49.942Z,1003.43
2022-11-08T08:44:49.910Z,1003.36
2022-11-08T08:45:49.929Z,1003.35
2022-11-08T08:46:49.884Z,1003.25
2022-11-08T08:47:49.876Z,1003.35
2022-11-08T08:48:49.859Z,1003.36
2022-11-08T08:49:49.845Z,1003.36
2022-11-08T08:50:49.850Z,1003.39
2022-11-08T08:51:49.847Z,1003.42
2022-11-08T08:52:49.815Z,1003.41
2022-11-08T08:53:49.801Z,1003.43
2022-11-08T08:54:49.788Z,1003.42
2022-11-08T08:55:49.814Z,1003.44
2022-11-08T08:56:49.777Z,1003.42
2022-11-08T08:57:49.768Z,1003.37
2022-11-08T09:01:50.830Z,1003.40
2022-11-08T09:02:50.648Z,1003.38
2022-11-08T09:03:49.695Z,1003.41
2022-11-08T09:04:49.684Z,1003.35
2022-11-08T09:05:50.193Z,1003.36
2022-11-08T09:06:49.709Z,1003.34
2022-11-08T09:07:49.650Z,1003.31
2022-11-08T09:08:49.632Z,1003.35
2022-11-08T09:09:49.722Z,1003.29
2022-11-08T09:10:49.623Z,1003.24
2022-11-08T09:11:49.604Z,1003.24
2022-11-08T09:12:49.589Z,1003.23
2022-11-08T09:13:49.587Z,1003.23
2022-11-08T09:14:49.564Z,1003.31
2022-11-08T09:15:49.608Z,1003.30
2022-11-08T09:16:49.541Z,1003.31
2022-11-08T09:17:49.540Z,1003.35
2022-11-08T09:18:49.608Z,1003.31
2022-11-08T09:19:54.407Z,1003.34
2022-11-08T09:20:50.569Z,1003.40
2022-11-08T09:21:49.525Z,1003.35
2022-11-08T09:22:49.483Z,1003.38
2022-11-08T09:23:49.476Z,1003.42
2022-11-08T09:24:49.461Z,1003.41
2022-11-08T09:25:49.586Z,1003.43
2022-11-08T09:26:49.498Z,1003.43
2022-11-08T09:27:49.419Z,1003.45
2022-11-08T09:28:49.416Z,1003.41
2022-11-08T09:29:49.399Z,1003.48
2022-11-08T09:30:49.398Z,1003.50
2022-11-08T09:31:49.396Z,1003.52
2022-11-08T09:33:04.729Z,1003.55
2022-11-08T09:33:50.369Z,1003.45
2022-11-08T09:34:49.406Z,1003.49
2022-11-08T09:35:49.350Z,1003.49
2022-11-08T09:36:49.325Z,1003.52
2022-11-08T09:37:49.957Z,1003.50
2022-11-08T09:38:49.292Z,1003.51
2022-11-08T09:39:49.290Z,1003.52
2022-11-08T09:40:49.288Z,1003.47
2022-11-08T09:41:51.462Z,1003.47
2022-11-08T09:42:50.255Z,1003.45
2022-11-08T09:43:49.248Z,1003.49
2022-11-08T09:44:49.234Z,1003.44
2022-11-08T09:45:49.253Z,1003.37
2022-11-08T09:46:49.211Z,1003.41
2022-11-08T09:47:52.866Z,1003.49
2022-11-08T09:48:49.182Z,1003.35
2022-11-08T09:49:49.174Z,1003.40
2022-11-08T09:50:49.180Z,1003.38
2022-11-08T09:51:49.159Z,1003.31
2022-11-08T09:52:49.145Z,1003.45
2022-11-08T09:53:49.136Z,1003.33
2022-11-08T09:54:49.115Z,1003.43
2022-11-08T09:55:49.123Z,1003.45
2022-11-08T09:56:49.092Z,1003.41
2022-11-08T09:57:49.082Z,1003.38
2022-11-08T09:58:49.080Z,1003.36
2022-11-08T09:59:49.069Z,1003.36
2022-11-08T10:00:49.063Z,1003.39
2022-11-08T10:01:49.123Z,1003.35
2022-11-08T10:02:49.033Z,1003.32
2022-11-08T10:03:49.049Z,1003.35
2022-11-08T10:04:49.014Z,1003.30
2022-11-08T10:05:49.010Z,1003.30
2022-11-08T10:06:49.051Z,1003.29
2022-11-08T10:07:48.991Z,1003.22
2022-11-08T10:08:48.957Z,1003.28
2022-11-08T10:09:48.947Z,1003.32
2022-11-08T10:10:48.961Z,1003.29
2022-11-08T10:11:48.934Z,1003.24
2022-11-08T10:12:48.918Z,1003.28
2022-11-08T10:13:48.922Z,1003.25
2022-11-08T10:14:53.889Z,1003.27
2022-11-08T10:15:49.911Z,1003.26
2022-11-08T10:16:48.873Z,1003.31
2022-11-08T10:17:48.865Z,1003.28
2022-11-08T10:18:48.851Z,1003.28
2022-11-08T10:19:48.867Z,1003.23
2022-11-08T10:20:48.836Z,1003.24
2022-11-08T10:21:48.825Z,1003.23
2022-11-08T10:22:48.810Z,1003.17
2022-11-08T10:23:48.790Z,1003.20
2022-11-08T10:24:48.783Z,1003.22
2022-11-08T10:25:48.782Z,1003.22
2022-11-08T10:26:48.761Z,1003.14
2022-11-08T10:27:48.755Z,1003.17
2022-11-08T10:28:48.769Z,1003.15
2022-11-08T10:29:48.842Z,1003.15
2022-11-08T10:30:48.731Z,1003.17
2022-11-08T10:31:48.701Z,1003.11
2022-11-08T10:32:48.692Z,1003.11
2022-11-08T10:33:48.677Z,1003.10
2022-11-08T10:34:48.685Z,1003.03
2022-11-08T10:35:48.811Z,1003.08
2022-11-08T10:36:48.661Z,1003.04
2022-11-08T10:37:48.640Z,1003.04
2022-11-08T10:38:48.626Z,1003.03
2022-11-08T10:39:48.616Z,1003.07
2022-11-08T10:40:48.611Z,1002.98
2022-11-08T10:41:48.637Z,1002.97
2022-11-08T10:42:48.580Z,1003.04
2022-11-08T10:43:48.574Z,1003.04
2022-11-08T10:44:48.560Z,1003.00
2022-11-08T10:45:48.556Z,1002.95
2022-11-08T10:46:48.541Z,1002.90
2022-11-08T10:47:48.518Z,1002.94
2022-11-08T10:48:48.516Z,1002.95
2022-11-08T10:49:48.504Z,1002.99
2022-11-08T10:50:48.502Z,1003.02
2022-11-08T10:51:48.512Z,1002.98
2022-11-08T10:52:48.468Z,1002.97
2022-11-08T10:53:48.451Z,1002.97
2022-11-08T10:54:48.445Z,1002.96
2022-11-08T10:55:48.447Z,1002.98
2022-11-08T10:56:48.436Z,1002.93
2022-11-08T10:57:48.423Z,1002.88
2022-11-08T10:58:48.395Z,1002.85
2022-11-08T10:59:48.384Z,1002.85
2022-11-08T11:00:48.385Z,1002.78
2022-11-08T11:01:48.367Z,1002.77
2022-11-08T11:02:48.349Z,1002.69
2022-11-08T11:03:48.341Z,1002.70
2022-11-08T11:04:48.327Z,1002.69
2022-11-08T11:05:48.314Z,1002.74
2022-11-08T11:06:48.380Z,1002.67
2022-11-08T11:07:48.311Z,1002.59
2022-11-08T11:08:48.289Z,1002.58
2022-11-08T11:09:48.269Z,1002.64
2022-11-08T11:10:48.259Z,1002.53
2022-11-08T11:11:48.261Z,1002.56
2022-11-08T11:12:48.235Z,1002.58
2022-11-08T11:13:48.225Z,1002.52
2022-11-08T11:14:48.219Z,1002.50
2022-11-08T11:15:48.214Z,1002.55
2022-11-08T11:16:48.221Z,1002.56
2022-11-08T11:17:48.352Z,1002.57
2022-11-08T11:18:48.173Z,1002.52
2022-11-08T11:19:48.158Z,1002.52
2022-11-08T11:20:48.153Z,1002.50
2022-11-08T11:21:48.143Z,1002.54
2022-11-08T11:22:48.157Z,1002.56
2022-11-08T11:23:48.129Z,1002.49
2022-11-08T11:24:48.103Z,1002.45
2022-11-08T11:25:48.099Z,1002.45
2022-11-08T11:26:48.079Z,1002.42
2022-11-08T11:27:48.206Z,1002.41
2022-11-08T11:28:48.065Z,1002.38
2022-11-08T11:29:48.059Z,1002.40
2022-11-08T11:30:48.035Z,1002.40
2022-11-08T11:31:48.036Z,1002.40
2022-11-08T11:32:48.045Z,1002.47
2022-11-08T11:33:48.013Z,1002.46
2022-11-08T11:34:48.007Z,1002.41
2022-11-08T11:35:47.984Z,1002.40
2022-11-08T11:36:47.977Z,1002.45
2022-11-08T11:37:48.052Z,1002.39
2022-11-08T11:38:47.946Z,1002.40
2022-11-08T11:39:47.965Z,1002.45
2022-11-08T11:40:48.008Z,1002.45
2022-11-08T11:41:47.914Z,1002.42
2022-11-08T11:42:47.923Z,1002.37
2022-11-08T11:43:47.898Z,1002.38
2022-11-08T11:44:47.918Z,1002.31
2022-11-08T11:45:47.875Z,1002.24
2022-11-08T11:46:47.866Z,1002.17
2022-11-08T11:47:48.064Z,1002.18
2022-11-08T11:48:47.846Z,1002.25
2022-11-08T11:49:47.834Z,1002.30
2022-11-08T11:50:47.993Z,1002.35
2022-11-08T11:51:47.898Z,1002.33
2022-11-08T11:52:47.818Z,1002.37
2022-11-08T11:53:49.080Z,1002.35
2022-11-08T11:54:47.771Z,1002.30
2022-11-08T11:55:47.803Z,1002.29
2022-11-08T11:56:47.748Z,1002.31
2022-11-08T11:57:47.753Z,1002.25
2022-11-08T11:58:47.726Z,1002.24
2022-11-08T11:59:47.710Z,1002.26
2022-11-08T12:00:47.697Z,1002.24
2022-11-08T12:01:47.742Z,1002.23
2022-11-08T12:02:47.693Z,1002.20
2022-11-08T12:03:47.664Z,1002.21
2022-11-08T12:04:47.649Z,1002.26
2022-11-08T12:05:47.645Z,1002.22
2022-11-08T12:06:47.701Z,1002.23
2022-11-08T12:07:47.651Z,1002.19
2022-11-08T12:08:47.623Z,1002.23